Adairsville, GA

7:13 AM EDT on July 07, 2015 (GMT -0400)
The Villages of Calhoun | | Change Station
CLOSE
Current Station
Personal Weather Station
Location: Calhoun, GA
Elevation: 676 ft
Nearby Weather Stations

Elev 676 ft 34.50 °N, 84.93 °W | Updated 13 minutes ago

Clear
Clear
67.7 °F
Feels Like 67.7 °F
N
0.0
Wind Variable Wind from North
Gusts 0.0 mph

Today
High -- | Low -- °F
--% Chance of Precip.
Yesterday
High -- | Low -- °F
Precip. -- in
6:33 AM 8:55 PM
Waning Gibbous, 66% visible
Pressure 30.11 in
Visibility 8.0 miles
Clouds Few 1200 ft
Dew Point 67 °F
Humidity 98%
Rainfall 0.00 in
Snow Depth Not available.
UV 0 out of 12
Pollen 3.20 out of 12
Air Quality Not available.
Flu Activity Not available.
METAR KRMG 071053Z AUTO 00000KT 8SM FEW012 20/19 A3014 RMK AO2 SLP195 T02000189

More Conditions Fewer Conditions

Pressure 30.11 in
Visibility 8.0 miles
Clouds Few 1200 ft
Dew Point 67 °F
Humidity 98%
Rainfall 0.00 in
Snow Depth Not available.
UV 0 out of 12
Pollen 3.20 out of 12
Air Quality Not available.
Flu Activity Not available.
METAR KRMG 071053Z AUTO 00000KT 8SM FEW012 20/19 A3014 RMK AO2 SLP195 T02000189

More Conditions Fewer Conditions

10-Day Weather Forecast

×

Almanac

Astronomy

Jul. 07, 2015 Rise Set
Actual Time
Civil Twilight
Nautical Twilight
Astronomical Twilight
Moon
Length of Visible Light
Length of Day
Tomorrow will be .
, % of the Moon is Illuminated

Today's Extremes

State Highs State Lows

Community

WunderPhotos

Upload Photos

1,835,767 photos uploaded!

WunderBlogs® & News

Nearby

Air Quality

  Air Quality AQ Index Pollutant
Not available.

Snow Depth

Station Depth Elevation

Earthquake Activity

City Distance Mag. Time & Date
Minimum magnitude displayed is 2.5.

Coastal Water Temperatures

Place Temperature

Stations

Nearby Weather Stations

Station Location Temp. Windchill Dew Point Humidity Wind Precip. Elev Updated Type